Time;durP1;ratioP1;P1;durP2;ratioP2;P2;SDS_P1;SDS_P2;PMS_P1;PMS_P2;Temp;Humidity;BMP_temperature;BMP_pressure;BME280_temperature;BME280_humidity;BME280_pressure;Samples;Min_cycle;Max_cycle;Signal;HPM_P1;HPM_P2
2022/11/26 00:02:24;;;;;;;;;;;6.90;99.90;;;;;;5056181;28;19931;-73
2022/11/26 00:04:51;;;;;;;;;;;6.70;99.90;;;;;;5073320;28;19994;-74
2022/11/26 00:07:20;;;;;;;;;;;6.60;99.90;;;;;;5055863;28;20452;-73
2022/11/26 00:09:45;;;;;;;;;;;6.70;99.90;;;;;;5074098;28;19920;-74
2022/11/26 00:12:15;;;;;;;;;;;6.80;99.90;;;;;;5057050;28;19969;-72
2022/11/26 00:14:41;;;;;;;;;;;6.80;99.90;;;;;;5055163;28;19921;-72
2022/11/26 00:17:08;;;;;;;;;;;6.90;99.90;;;;;;5055965;28;19921;-72
2022/11/26 00:19:33;;;;;;;;;;;6.80;99.90;;;;;;5056260;28;20405;-72
2022/11/26 00:21:59;;;;;;;;;;;6.70;99.90;;;;;;5055829;28;19960;-71
2022/11/26 00:24:26;;;;;;;;;;;6.70;99.90;;;;;;5069323;28;19927;-72
2022/11/26 00:26:52;;;;;;;;;;;6.60;99.90;;;;;;5101675;28;19942;-72
2022/11/26 00:29:17;;;;;;;;;;;6.70;99.90;;;;;;5100249;28;20347;-72
2022/11/26 00:31:43;;;;;;;;;;;6.90;99.90;;;;;;5083128;28;19920;-72
2022/11/26 00:34:08;;;;;;;;;;;6.60;99.90;;;;;;5074887;28;19924;-71
2022/11/26 00:36:33;;;;;;;;;;;6.50;99.90;;;;;;5075514;28;19959;-71
2022/11/26 00:39:08;;;;;;;;;;;6.50;99.90;;;;;;5076578;28;19924;-71
2022/11/26 00:41:35;;;;;;;;;;;6.40;99.90;;;;;;5093670;28;19982;-71
2022/11/26 00:44:00;;;;;;;;;;;6.60;99.90;;;;;;5074471;28;19975;-70
2022/11/26 00:46:26;;;;;;;;;;;6.60;99.90;;;;;;5073721;28;20404;-71
2022/11/26 00:48:51;;;;;;;;;;;6.40;99.90;;;;;;5093312;28;19920;-70
2022/11/26 00:51:19;;;;;;;;;;;6.40;99.90;;;;;;5075482;28;19924;-71
2022/11/26 00:53:45;;;;;;;;;;;6.80;99.90;;;;;;5092986;28;19927;-70
2022/11/26 00:56:17;;;;;;;;;;;6.50;99.90;;;;;;5074750;28;19924;-72
2022/11/26 00:58:42;;;;;;;;;;;6.40;99.90;;;;;;5075260;28;19992;-71
2022/11/26 01:01:09;;;;;;;;;;;6.70;99.90;;;;;;5075211;28;20386;-71
2022/11/26 01:03:35;;;;;;;;;;;6.70;99.90;;;;;;5073404;28;19932;-71
2022/11/26 01:06:00;;;;;;;;;;;6.60;99.90;;;;;;5092523;28;19920;-71
2022/11/26 01:08:30;;;;;;;;;;;6.40;99.90;;;;;;5074911;28;20455;-71
2022/11/26 01:10:57;;;;;;;;;;;6.50;99.90;;;;;;5093140;28;20266;-71
2022/11/26 01:13:22;;;;;;;;;;;6.40;99.90;;;;;;5074697;28;19924;-71
2022/11/26 01:15:47;;;;;;;;;;;6.60;99.90;;;;;;5073686;28;19931;-70
2022/11/26 01:18:15;;;;;;;;;;;6.50;99.90;;;;;;5074330;28;19977;-71
2022/11/26 01:20:40;;;;;;;;;;;6.40;99.90;;;;;;5073268;28;19928;-71
2022/11/26 01:23:08;;;;;;;;;;;6.50;99.90;;;;;;5074178;28;19931;-71
2022/11/26 01:25:35;;;;;;;;;;;6.50;99.90;;;;;;5057075;28;20405;-71
2022/11/26 01:28:01;;;;;;;;;;;6.50;99.90;;;;;;5074432;28;19927;-71
2022/11/26 01:30:29;;;;;;;;;;;6.60;99.90;;;;;;5074604;28;19926;-71
2022/11/26 01:32:55;;;;;;;;;;;6.70;99.90;;;;;;5074712;28;20087;-71
2022/11/26 01:35:20;;;;;;;;;;;6.50;99.90;;;;;;5092013;28;19926;-71
2022/11/26 01:37:46;;;;;;;;;;;6.40;99.90;;;;;;5072632;28;20282;-71
2022/11/26 01:40:18;;;;;;;;;;;6.50;99.90;;;;;;5082136;28;19920;-71
2022/11/26 01:42:47;;;;;;;;;;;6.80;99.90;;;;;;5054580;28;20228;-71
2022/11/26 01:45:17;;;;;;;;;;;6.30;99.90;;;;;;5071654;28;19920;-71
2022/11/26 01:47:42;;;;;;;;;;;6.50;99.90;;;;;;5037898;28;19924;-71
2022/11/26 01:50:26;;;;;;;;;;;6.70;99.90;;;;;;5054152;28;20004;-71
2022/11/26 01:52:53;;;;;;;;;;;6.70;99.90;;;;;;5054175;28;19920;-71
2022/11/26 01:55:18;;;;;;;;;;;6.50;99.90;;;;;;5037922;28;19921;-71
2022/11/26 01:57:44;;;;;;;;;;;6.40;99.90;;;;;;5036827;28;20567;-71
2022/11/26 02:00:10;;;;;;;;;;;6.50;99.90;;;;;;5054436;28;20432;-71
2022/11/26 02:02:36;;;;;;;;;;;6.40;99.90;;;;;;5072174;28;19924;-71
2022/11/26 02:05:04;;;;;;;;;;;6.50;99.90;;;;;;5053351;28;19921;-71
2022/11/26 02:07:30;;;;;;;;;;;6.40;99.90;;;;;;5054345;28;19942;-71
2022/11/26 02:09:56;;;;;;;;;;;6.50;99.90;;;;;;5054176;28;20319;-71
2022/11/26 02:12:21;;;;;;;;;;;6.30;99.90;;;;;;5038028;28;19920;-71
2022/11/26 02:14:47;;;;;;;;;;;6.50;99.90;;;;;;5053273;28;19925;-71
2022/11/26 02:17:24;;;;;;;;;;;6.30;99.90;;;;;;5072056;28;19928;-71
2022/11/26 02:20:18;;;;;;;;;;;6.30;99.90;;;;;;5037349;28;19920;-71
2022/11/26 02:23:02;;;;;;;;;;;6.50;99.90;;;;;;5054099;28;20302;-71
2022/11/26 02:25:57;;;;;;;;;;;6.30;99.90;;;;;;5053122;28;19928;-71
2022/11/26 02:28:32;;;;;;;;;;;6.40;99.90;;;;;;5023654;28;19921;-71
2022/11/26 02:31:01;;;;;;;;;;;6.30;99.90;;;;;;5071877;28;20310;-71
2022/11/26 02:33:32;;;;;;;;;;;6.40;99.90;;;;;;5037290;28;19925;-71
2022/11/26 02:36:00;;;;;;;;;;;6.40;99.90;;;;;;5053461;28;19947;-71
2022/11/26 02:38:31;;;;;;;;;;;6.30;99.90;;;;;;5071701;28;19973;-71
2022/11/26 02:40:57;;;;;;;;;;;6.10;99.90;;;;;;5055068;28;20005;-71
2022/11/26 02:43:23;;;;;;;;;;;6.40;99.90;;;;;;5037147;28;20382;-71
2022/11/26 02:45:50;;;;;;;;;;;6.20;99.90;;;;;;5070345;28;20293;-71
2022/11/26 02:48:20;;;;;;;;;;;6.30;99.90;;;;;;5077105;28;19928;-71
2022/11/26 02:50:48;;;;;;;;;;;6.20;99.90;;;;;;5082362;28;19921;-71
2022/11/26 02:53:14;;;;;;;;;;;6.20;99.90;;;;;;5081214;28;19920;-71
2022/11/26 02:55:42;;;;;;;;;;;6.30;99.90;;;;;;5057712;28;19920;-71
2022/11/26 02:58:07;;;;;;;;;;;6.30;99.90;;;;;;5092085;28;19931;-71
2022/11/26 03:00:34;;;;;;;;;;;6.50;99.90;;;;;;5057050;28;20007;-71
2022/11/26 03:03:00;;;;;;;;;;;6.50;99.90;;;;;;5055191;28;20179;-71
2022/11/26 03:05:27;;;;;;;;;;;6.40;99.90;;;;;;5072862;28;20306;-71
2022/11/26 03:07:53;;;;;;;;;;;6.40;99.90;;;;;;5073653;28;20011;-71
2022/11/26 03:10:23;;;;;;;;;;;6.40;99.90;;;;;;5077455;28;19975;-71
2022/11/26 03:12:48;;;;;;;;;;;6.40;99.90;;;;;;5077239;28;20339;-71
2022/11/26 03:15:13;;;;;;;;;;;6.30;99.90;;;;;;5059466;28;19927;-71
2022/11/26 03:17:39;;;;;;;;;;;6.60;99.90;;;;;;5095014;28;19920;-71
2022/11/26 03:20:05;;;;;;;;;;;6.30;99.90;;;;;;5093441;28;19920;-71
2022/11/26 03:22:30;;;;;;;;;;;6.30;99.90;;;;;;5094949;28;19924;-71
2022/11/26 03:24:56;;;;;;;;;;;6.50;99.90;;;;;;5059407;28;19924;-71
2022/11/26 03:27:22;;;;;;;;;;;6.30;99.90;;;;;;5076882;28;19920;-71
2022/11/26 03:29:47;;;;;;;;;;;6.30;99.90;;;;;;5095189;28;20282;-71
2022/11/26 03:32:12;;;;;;;;;;;6.40;99.90;;;;;;5076765;28;19926;-71
2022/11/26 03:34:38;;;;;;;;;;;6.10;99.90;;;;;;5072466;28;19920;-70
2022/11/26 03:37:03;;;;;;;;;;;6.30;99.90;;;;;;5040829;28;19974;-71
2022/11/26 03:39:29;;;;;;;;;;;6.40;99.90;;;;;;5040400;28;20409;-71
2022/11/26 03:41:54;;;;;;;;;;;6.20;99.90;;;;;;5074709;28;19921;-71
2022/11/26 03:44:20;;;;;;;;;;;6.20;99.90;;;;;;5056011;28;20011;-71
2022/11/26 03:46:45;;;;;;;;;;;6.30;99.90;;;;;;5056486;28;19920;-71
2022/11/26 03:49:11;;;;;;;;;;;6.20;99.90;;;;;;5040099;28;20346;-71
2022/11/26 03:51:36;;;;;;;;;;;6.40;99.90;;;;;;5074321;28;20041;-71
2022/11/26 03:54:02;;;;;;;;;;;6.00;99.90;;;;;;5058350;28;20405;-71
2022/11/26 03:56:28;;;;;;;;;;;6.30;99.90;;;;;;5094673;28;19920;-71
2022/11/26 03:58:53;;;;;;;;;;;6.10;99.90;;;;;;5059199;28;19920;-71
2022/11/26 04:01:19;;;;;;;;;;;6.20;99.90;;;;;;5059776;28;20504;-71
2022/11/26 04:03:44;;;;;;;;;;;6.40;99.90;;;;;;5075686;28;19924;-70
2022/11/26 04:06:10;;;;;;;;;;;6.40;99.90;;;;;;5093858;28;19920;-71
2022/11/26 04:08:35;;;;;;;;;;;6.10;99.90;;;;;;5076031;28;20283;-71
2022/11/26 04:11:01;;;;;;;;;;;6.30;99.90;;;;;;5094271;28;19924;-71
2022/11/26 04:13:26;;;;;;;;;;;6.00;99.90;;;;;;5058124;28;19993;-71
2022/11/26 04:15:51;;;;;;;;;;;6.20;99.90;;;;;;5075407;28;19920;-71
2022/11/26 04:18:17;;;;;;;;;;;6.10;99.90;;;;;;5094112;28;19959;-71
2022/11/26 04:20:42;;;;;;;;;;;6.10;99.90;;;;;;5074804;28;19926;-71
2022/11/26 04:23:08;;;;;;;;;;;6.10;99.90;;;;;;5075701;28;19963;-71
2022/11/26 04:25:34;;;;;;;;;;;6.20;99.90;;;;;;5075012;28;19920;-71
2022/11/26 04:27:59;;;;;;;;;;;6.10;99.90;;;;;;5093971;28;19920;-71
2022/11/26 04:30:25;;;;;;;;;;;5.90;99.90;;;;;;5073932;28;19920;-71
2022/11/26 04:32:50;;;;;;;;;;;6.20;99.90;;;;;;5075592;28;19965;-71
2022/11/26 04:35:17;;;;;;;;;;;;;;;;;;5093035;28;20420;-71
2022/11/26 04:37:43;;;;;;;;;;;5.90;99.90;;;;;;5075382;28;19924;-71
2022/11/26 04:40:08;;;;;;;;;;;;;;;;;;5075427;28;20271;-71
2022/11/26 04:42:34;;;;;;;;;;;;;;;;;;5075365;28;19928;-71
2022/11/26 04:45:00;;;;;;;;;;;6.10;99.90;;;;;;5092886;28;19965;-71
2022/11/26 04:47:26;;;;;;;;;;;5.90;99.90;;;;;;5091719;28;19942;-71
2022/11/26 04:49:51;;;;;;;;;;;;;;;;;;5093283;28;19920;-71
2022/11/26 04:52:17;;;;;;;;;;;;;;;;;;5093692;28;19982;-71
2022/11/26 04:54:43;;;;;;;;;;;;;;;;;;5074103;28;19920;-71
2022/11/26 04:57:09;;;;;;;;;;;5.80;99.90;;;;;;5075072;28;20378;-71
2022/11/26 04:59:34;;;;;;;;;;;5.70;99.90;;;;;;5093306;28;19927;-71
2022/11/26 05:02:00;;;;;;;;;;;;;;;;;;5075307;28;19920;-71
2022/11/26 05:04:26;;;;;;;;;;;;;;;;;;5072452;28;19920;-71
2022/11/26 05:06:51;;;;;;;;;;;5.90;99.90;;;;;;5057848;28;19920;-71
2022/11/26 05:09:17;;;;;;;;;;;5.90;99.90;;;;;;5060783;28;19924;-71
2022/11/26 05:11:43;;;;;;;;;;;;;;;;;;5083094;28;19940;-71
2022/11/26 05:14:09;;;;;;;;;;;;;;;;;;5080866;28;20453;-71
2022/11/26 05:16:34;;;;;;;;;;;5.70;99.90;;;;;;5080369;28;19920;-71
2022/11/26 05:19:00;;;;;;;;;;;;;;;;;;5058687;28;19920;-71
2022/11/26 05:21:27;;;;;;;;;;;;;;;;;;5075106;28;19989;-71
2022/11/26 05:23:53;;;;;;;;;;;;;;;;;;5091292;28;19947;-71
2022/11/26 05:26:18;;;;;;;;;;;5.80;99.90;;;;;;5058127;28;19920;-71
2022/11/26 05:28:44;;;;;;;;;;;5.80;99.90;;;;;;5092595;28;19920;-71
2022/11/26 05:31:09;;;;;;;;;;;5.80;99.90;;;;;;5074609;28;20323;-71
2022/11/26 05:33:35;;;;;;;;;;;;;;;;;;5092647;28;20019;-71
2022/11/26 05:36:01;;;;;;;;;;;5.70;99.90;;;;;;5091901;28;20016;-71
2022/11/26 05:38:27;;;;;;;;;;;;;;;;;;5092518;28;20015;-71
2022/11/26 05:40:53;;;;;;;;;;;;;;;;;;5091076;28;19974;-71
2022/11/26 05:43:18;;;;;;;;;;;;;;;;;;5074438;28;19924;-71
2022/11/26 05:45:44;;;;;;;;;;;;;;;;;;5091836;28;19973;-71
2022/11/26 05:48:10;;;;;;;;;;;;;;;;;;5081025;28;19967;-72
2022/11/26 05:50:36;;;;;;;;;;;5.70;99.90;;;;;;5054196;28;20496;-71
2022/11/26 05:53:01;;;;;;;;;;;5.80;99.90;;;;;;5087394;28;19943;-71
2022/11/26 05:55:27;;;;;;;;;;;;;;;;;;5087900;28;19935;-71
2022/11/26 05:57:53;;;;;;;;;;;5.50;99.90;;;;;;5072293;28;19920;-71
2022/11/26 06:00:18;;;;;;;;;;;5.70;99.90;;;;;;5072481;28;19921;-71
2022/11/26 06:02:44;;;;;;;;;;;;;;;;;;5072196;28;20425;-72
2022/11/26 06:05:10;;;;;;;;;;;;;;;;;;5071220;28;19964;-71
2022/11/26 06:07:36;;;;;;;;;;;;;;;;;;5072367;28;20007;-71
2022/11/26 06:10:02;;;;;;;;;;;5.80;99.90;;;;;;5054051;28;19966;-71
2022/11/26 06:12:27;;;;;;;;;;;5.90;99.90;;;;;;5069171;28;19923;-71
2022/11/26 06:14:53;;;;;;;;;;;5.80;99.90;;;;;;5056479;28;19943;-72
2022/11/26 06:17:19;;;;;;;;;;;;;;;;;;5073801;28;19942;-72
2022/11/26 06:19:45;;;;;;;;;;;;;;;;;;5067380;28;19921;-71
2022/11/26 06:22:11;;;;;;;;;;;;;;;;;;5053883;28;19929;-71
2022/11/26 06:24:36;;;;;;;;;;;5.60;99.90;;;;;;5071110;28;19989;-71
2022/11/26 06:27:02;;;;;;;;;;;5.70;99.90;;;;;;5037240;28;19921;-71
2022/11/26 06:29:28;;;;;;;;;;;;;;;;;;5054269;28;20352;-71
2022/11/26 06:31:54;;;;;;;;;;;;;;;;;;5054091;28;19920;-71
2022/11/26 06:34:20;;;;;;;;;;;;;;;;;;5053348;28;19920;-71
2022/11/26 06:36:45;;;;;;;;;;;5.90;99.90;;;;;;5071846;28;20390;-72
2022/11/26 06:39:11;;;;;;;;;;;5.70;99.90;;;;;;5038669;28;19932;-71
2022/11/26 06:41:37;;;;;;;;;;;;;;;;;;5044071;28;19920;-71
2022/11/26 06:44:02;;;;;;;;;;;;;;;;;;5092936;28;19924;-71
2022/11/26 06:46:28;;;;;;;;;;;;;;;;;;5096006;28;19927;-71
2022/11/26 06:48:54;;;;;;;;;;;6.00;99.90;;;;;;5077463;28;19969;-71
2022/11/26 06:51:20;;;;;;;;;;;5.80;99.90;;;;;;5077891;28;19924;-71
2022/11/26 06:53:47;;;;;;;;;;;6.00;99.90;;;;;;5077315;28;19920;-71
2022/11/26 06:56:13;;;;;;;;;;;5.60;99.90;;;;;;5075331;28;19967;-71
2022/11/26 06:58:39;;;;;;;;;;;;;;;;;;5095527;28;19920;-71
2022/11/26 07:01:09;;;;;;;;;;;5.80;99.90;;;;;;5077270;28;19943;-72
2022/11/26 07:03:34;;;;;;;;;;;5.90;99.90;;;;;;5077169;28;19924;-71
2022/11/26 07:06:00;;;;;;;;;;;;;;;;;;5076874;28;19943;-71
2022/11/26 07:08:26;;;;;;;;;;;;;;;;;;5076904;28;19924;-71
2022/11/26 07:10:51;;;;;;;;;;;5.80;99.90;;;;;;5095464;28;19951;-71
2022/11/26 07:13:17;;;;;;;;;;;6.00;99.90;;;;;;5065919;28;19932;-71
2022/11/26 07:15:43;;;;;;;;;;;;;;;;;;5039745;28;19928;-71
2022/11/26 07:18:09;;;;;;;;;;;;;;;;;;5057239;28;20455;-71
2022/11/26 07:20:34;;;;;;;;;;;;;;;;;;5057003;28;19921;-71
2022/11/26 07:23:01;;;;;;;;;;;6.00;99.90;;;;;;5056843;28;19924;-71
2022/11/26 07:25:27;;;;;;;;;;;;;;;;;;5056176;28;19921;-71
2022/11/26 07:27:53;;;;;;;;;;;;;;;;;;5056676;28;19926;-71
2022/11/26 07:30:18;;;;;;;;;;;5.90;99.90;;;;;;5058004;28;19943;-71
2022/11/26 07:32:44;;;;;;;;;;;6.10;99.90;;;;;;5072652;28;19921;-71
2022/11/26 07:35:10;;;;;;;;;;;;;;;;;;5083682;28;19951;-71
2022/11/26 07:37:36;;;;;;;;;;;;;;;;;;5083320;28;19942;-71
2022/11/26 07:40:02;;;;;;;;;;;;;;;;;;5079554;28;19988;-71
2022/11/26 07:42:28;;;;;;;;;;;;;;;;;;5095156;28;19970;-73
2022/11/26 07:44:53;;;;;;;;;;;6.00;99.90;;;;;;5076063;28;20302;-71
2022/11/26 07:47:19;;;;;;;;;;;6.10;99.90;;;;;;5075282;28;19920;-71
2022/11/26 07:49:45;;;;;;;;;;;;;;;;;;5059979;28;20329;-71
2022/11/26 07:52:11;;;;;;;;;;;;;;;;;;5076649;28;19924;-71
2022/11/26 07:54:37;;;;;;;;;;;;;;;;;;5070545;28;20291;-71
2022/11/26 07:57:03;;;;;;;;;;;;;;;;;;5064455;28;20007;-72
2022/11/26 07:59:28;;;;;;;;;;;6.40;99.90;;;;;;5076357;28;19920;-72
2022/11/26 08:01:54;;;;;;;;;;;6.40;99.90;;;;;;5059639;28;19920;-71
2022/11/26 08:04:20;;;;;;;;;;;;;;;;;;5075639;28;20340;-71
2022/11/26 08:06:45;;;;;;;;;;;;;;;;;;5074613;28;19974;-71
2022/11/26 08:09:12;;;;;;;;;;;;;;;;;;5076612;28;20154;-71
2022/11/26 08:11:38;;;;;;;;;;;6.20;99.90;;;;;;5094410;28;20359;-71
2022/11/26 08:14:05;;;;;;;;;;;6.50;99.90;;;;;;5093528;28;19924;-71
2022/11/26 08:16:31;;;;;;;;;;;6.60;99.90;;;;;;5074779;28;20346;-71
2022/11/26 08:18:58;;;;;;;;;;;6.50;99.90;;;;;;5077028;28;19971;-71
2022/11/26 08:21:23;;;;;;;;;;;6.50;99.90;;;;;;5076212;28;19965;-71
2022/11/26 08:23:49;;;;;;;;;;;;;;;;;;5075240;28;19924;-71
2022/11/26 08:26:15;;;;;;;;;;;6.70;99.90;;;;;;5075895;28;19920;-71
2022/11/26 08:28:41;;;;;;;;;;;;;;;;;;5075991;28;19920;-73
2022/11/26 08:31:07;;;;;;;;;;;;;;;;;;5057311;28;19959;-73
2022/11/26 08:33:32;;;;;;;;;;;6.70;99.90;;;;;;5093985;28;20007;-73
2022/11/26 08:35:58;;;;;;;;;;;;;;;;;;5065608;28;20330;-73
2022/11/26 08:38:25;;;;;;;;;;;6.60;99.90;;;;;;5055559;28;19920;-73
2022/11/26 08:40:53;;;;;;;;;;;6.50;99.90;;;;;;5073491;28;19921;-73
2022/11/26 08:43:18;;;;;;;;;;;;;;;;;;5073140;28;19924;-76
2022/11/26 08:45:50;;;;;;;;;;;6.80;99.90;;;;;;5054415;28;19993;-73
2022/11/26 08:48:16;;;;;;;;;;;;;;;;;;5067653;28;19920;-72
2022/11/26 08:50:41;;;;;;;;;;;6.70;99.90;;;;;;5093703;28;19920;-73
2022/11/26 08:53:07;;;;;;;;;;;6.80;99.90;;;;;;5059378;28;20279;-73
2022/11/26 08:55:33;;;;;;;;;;;;;;;;;;5065509;28;19920;-73
2022/11/26 08:57:58;;;;;;;;;;;7.00;99.90;;;;;;5074577;28;20654;-75
2022/11/26 09:00:23;;;;;;;;;;;7.00;99.90;;;;;;5074541;28;19927;-73
2022/11/26 09:02:49;;;;;;;;;;;;;;;;;;5079523;28;19924;-71
2022/11/26 09:05:15;;;;;;;;;;;;;;;;;;5063566;28;20011;-71
2022/11/26 09:07:41;;;;;;;;;;;;;;;;;;5078610;28;19927;-70
2022/11/26 09:10:07;;;;;;;;;;;;;;;;;;5062387;28;19924;-70
2022/11/26 09:12:33;;;;;;;;;;;;;;;;;;5064872;28;19920;-71
2022/11/26 09:14:58;;;;;;;;;;;7.20;99.90;;;;;;5067097;28;19974;-71
2022/11/26 09:17:24;;;;;;;;;;;7.40;99.90;;;;;;5090959;28;20359;-71
2022/11/26 09:19:50;;;;;;;;;;;;;;;;;;5041537;28;19973;-70
2022/11/26 09:22:16;;;;;;;;;;;;;;;;;;5067576;28;19934;-70
2022/11/26 09:24:41;;;;;;;;;;;7.50;99.90;;;;;;5086725;28;19989;-70
2022/11/26 09:27:07;;;;;;;;;;;;;;;;;;5087379;28;19934;-73
2022/11/26 09:29:33;;;;;;;;;;;;;;;;;;5068758;28;19931;-70
2022/11/26 09:31:59;;;;;;;;;;;;;;;;;;5082768;28;20464;-70
2022/11/26 09:34:25;;;;;;;;;;;;;;;;;;5068352;28;19924;-72
2022/11/26 09:36:51;;;;;;;;;;;;;;;;;;5084844;28;19996;-70
2022/11/26 09:39:17;;;;;;;;;;;;;;;;;;5068973;28;19924;-71
2022/11/26 09:41:43;;;;;;;;;;;;;;;;;;5053722;28;19931;-70
2022/11/26 09:44:14;;;;;;;;;;;7.90;99.90;;;;;;5060834;28;20325;-70
2022/11/26 09:46:46;;;;;;;;;;;7.90;99.90;;;;;;5050297;28;19973;-70
2022/11/26 09:49:12;;;;;;;;;;;;;;;;;;5069361;28;19924;-69
2022/11/26 09:51:38;;;;;;;;;;;;;;;;;;5069342;28;19935;-70
2022/11/26 09:54:04;;;;;;;;;;;7.70;99.90;;;;;;5083253;28;20484;-71
2022/11/26 09:56:31;;;;;;;;;;;8.00;99.90;;;;;;5071753;28;19928;-71
2022/11/26 09:59:00;;;;;;;;;;;;;;;;;;5075593;28;19928;-70
2022/11/26 10:01:26;;;;;;;;;;;;;;;;;;5074856;28;19931;-71
2022/11/26 10:03:52;;;;;;;;;;;;;;;;;;5088779;28;19924;-69
2022/11/26 10:06:18;;;;;;;;;;;;;;;;;;5067228;28;20286;-70
2022/11/26 10:08:44;;;;;;;;;;;;;;;;;;5087473;28;20019;-70
2022/11/26 10:11:09;;;;;;;;;;;;;;;;;;5083858;28;20340;-70
2022/11/26 10:13:35;;;;;;;;;;;;;;;;;;5067997;28;19924;-71
2022/11/26 10:16:01;;;;;;;;;;;;;;;;;;5077172;28;19947;-71
2022/11/26 10:18:35;;;;;;;;;;;8.00;99.90;;;;;;5088311;28;19989;-71
2022/11/26 10:21:04;;;;;;;;;;;8.20;99.90;;;;;;5072024;28;19923;-71
2022/11/26 10:23:29;;;;;;;;;;;;;;;;;;5072852;28;19924;-70
2022/11/26 10:25:55;;;;;;;;;;;;;;;;;;5086530;28;19947;-71
2022/11/26 10:28:21;;;;;;;;;;;;;;;;;;5089392;28;20252;-70
2022/11/26 10:30:47;;;;;;;;;;;;;;;;;;5089386;28;19924;-70
2022/11/26 10:33:13;;;;;;;;;;;;;;;;;;5073219;28;19924;-71
2022/11/26 10:35:39;;;;;;;;;;;;;;;;;;5062427;28;20049;-71
2022/11/26 10:38:05;;;;;;;;;;;;;;;;;;5089101;28;19924;-70
2022/11/26 10:40:31;;;;;;;;;;;;;;;;;;5090396;28;19920;-70
2022/11/26 10:42:57;;;;;;;;;;;;;;;;;;5086740;28;19932;-71
2022/11/26 10:45:23;;;;;;;;;;;;;;;;;;5063914;28;20371;-70
2022/11/26 10:47:49;;;;;;;;;;;;;;;;;;5067449;28;19921;-70
2022/11/26 10:50:15;;;;;;;;;;;;;;;;;;5073217;28;20381;-71
2022/11/26 10:52:41;;;;;;;;;;;;;;;;;;5084661;28;19931;-71
2022/11/26 10:55:06;;;;;;;;;;;;;;;;;;5052446;28;19924;-72
2022/11/26 10:57:32;;;;;;;;;;;;;;;;;;5082808;28;19931;-71
2022/11/26 10:59:58;;;;;;;;;;;8.60;99.90;;;;;;5066835;28;19943;-72
2022/11/26 11:02:38;;;;;;;;;;;8.60;99.90;;;;;;5065979;28;19921;-71
2022/11/26 11:05:04;;;;;;;;;;;8.70;99.90;;;;;;5066713;28;19955;-71
2022/11/26 11:07:30;;;;;;;;;;;8.70;99.90;;;;;;5068159;28;20020;-71
2022/11/26 11:10:00;;;;;;;;;;;8.60;99.90;;;;;;5086719;28;20405;-71
2022/11/26 11:12:26;;;;;;;;;;;8.70;99.90;;;;;;5060747;28;19963;-71
2022/11/26 11:14:52;;;;;;;;;;;8.70;99.90;;;;;;5094439;28;20013;-70
2022/11/26 11:17:17;;;;;;;;;;;;;;;;;;5076877;28;19924;-72
2022/11/26 11:19:43;;;;;;;;;;;;;;;;;;5093925;28;19924;-71
2022/11/26 11:22:17;;;;;;;;;;;8.70;99.90;;;;;;5095228;28;20351;-71
2022/11/26 11:24:43;;;;;;;;;;;8.70;99.90;;;;;;5075652;28;19924;-70
2022/11/26 11:27:20;;;;;;;;;;;8.70;99.90;;;;;;5076778;28;19920;-71
2022/11/26 11:29:46;;;;;;;;;;;8.90;99.90;;;;;;5076965;28;19920;-72
2022/11/26 11:32:47;;;;;;;;;;;9.00;99.90;;;;;;5076610;28;19920;-71
2022/11/26 11:35:18;;;;;;;;;;;8.70;99.90;;;;;;4975755;28;19929;-71
2022/11/26 11:37:48;;;;;;;;;;;8.80;99.90;;;;;;5057669;28;20419;-70
2022/11/26 11:40:14;;;;;;;;;;;8.90;99.90;;;;;;5094017;28;19920;-71
2022/11/26 11:42:40;;;;;;;;;;;9.00;99.90;;;;;;5076453;28;19924;-71
2022/11/26 11:45:17;;;;;;;;;;;9.10;99.90;;;;;;5075987;28;19981;-71
2022/11/26 11:47:47;;;;;;;;;;;9.10;99.90;;;;;;5094812;28;19966;-71
2022/11/26 11:50:24;;;;;;;;;;;9.00;99.90;;;;;;5094714;28;20011;-71
2022/11/26 11:53:08;;;;;;;;;;;8.90;99.90;;;;;;5076274;28;20075;-70
2022/11/26 11:55:40;;;;;;;;;;;8.90;99.90;;;;;;5055551;28;19927;-70
2022/11/26 11:58:32;;;;;;;;;;;9.30;99.90;;;;;;5074331;28;19920;-70
2022/11/26 12:01:07;;;;;;;;;;;9.20;99.90;;;;;;5059174;28;19963;-71
2022/11/26 12:03:43;;;;;;;;;;;9.30;99.90;;;;;;5059440;28;19938;-70
2022/11/26 12:06:28;;;;;;;;;;;9.30;99.90;;;;;;5076046;28;19920;-70
2022/11/26 12:08:56;;;;;;;;;;;9.10;99.90;;;;;;5074782;28;19926;-70
2022/11/26 12:11:28;;;;;;;;;;;8.90;99.90;;;;;;5093885;28;19927;-72
2022/11/26 12:14:20;;;;;;;;;;;8.90;99.90;;;;;;5093430;28;19920;-70
2022/11/26 12:16:49;;;;;;;;;;;9.20;99.90;;;;;;5055161;28;20251;-70
2022/11/26 12:19:21;;;;;;;;;;;9.20;99.90;;;;;;5077002;28;19924;-71
2022/11/26 12:21:57;;;;;;;;;;;9.30;99.90;;;;;;5066343;28;19963;-70
2022/11/26 12:24:42;;;;;;;;;;;9.50;99.90;;;;;;5065759;28;19924;-70
2022/11/26 12:27:14;;;;;;;;;;;9.50;99.90;;;;;;5079139;28;19920;-70
2022/11/26 12:29:41;;;;;;;;;;;9.40;99.90;;;;;;5059541;28;19923;-70
2022/11/26 12:32:10;;;;;;;;;;;9.60;99.90;;;;;;5075954;28;20386;-70
2022/11/26 12:34:38;;;;;;;;;;;9.70;99.90;;;;;;5092683;28;20011;-70
2022/11/26 12:37:03;;;;;;;;;;;9.70;99.90;;;;;;5075506;28;19920;-70
2022/11/26 12:39:44;;;;;;;;;;;9.70;99.90;;;;;;5076753;28;20386;-70
2022/11/26 12:42:18;;;;;;;;;;;9.70;99.90;;;;;;5092594;28;20026;-71
2022/11/26 12:44:47;;;;;;;;;;;9.70;99.90;;;;;;5070973;28;19928;-71
2022/11/26 12:47:13;;;;;;;;;;;;;;;;;;5074592;28;19957;-72
2022/11/26 12:49:39;;;;;;;;;;;;;;;;;;5075201;28;19920;-71
2022/11/26 12:52:05;;;;;;;;;;;;;;;;;;5093499;28;20381;-71
2022/11/26 12:54:31;;;;;;;;;;;;;;;;;;5092590;28;19927;-72
2022/11/26 12:57:14;;;;;;;;;;;9.80;99.90;;;;;;5058785;28;20029;-72
2022/11/26 12:59:49;;;;;;;;;;;9.70;99.90;;;;;;5075136;28;20351;-71
2022/11/26 13:02:14;;;;;;;;;;;9.80;99.90;;;;;;5073642;28;20305;-71
2022/11/26 13:04:40;;;;;;;;;;;9.50;99.90;;;;;;5074186;28;20003;-71
2022/11/26 13:07:18;;;;;;;;;;;9.70;99.90;;;;;;5093316;28;20267;-71
2022/11/26 13:09:54;;;;;;;;;;;9.80;99.90;;;;;;5058370;28;19920;-71
2022/11/26 13:12:44;;;;;;;;;;;9.60;99.90;;;;;;5074973;28;19920;-71
2022/11/26 13:15:22;;;;;;;;;;;9.40;99.90;;;;;;5045524;28;19920;-71
2022/11/26 13:17:48;;;;;;;;;;;9.40;99.90;;;;;;5074973;28;19924;-71
2022/11/26 13:20:27;;;;;;;;;;;9.60;99.90;;;;;;5091145;28;19971;-71
2022/11/26 13:22:53;;;;;;;;;;;;;;;;;;5074979;28;19924;-71
2022/11/26 13:25:41;;;;;;;;;;;9.50;99.90;;;;;;5057200;28;19920;-71
2022/11/26 13:28:07;;;;;;;;;;;;;;;;;;5074946;28;20368;-71
2022/11/26 13:30:42;;;;;;;;;;;9.80;99.90;;;;;;5092832;28;19920;-71
2022/11/26 13:33:07;;;;;;;;;;;9.70;99.90;;;;;;5074523;28;19993;-71
2022/11/26 13:35:58;;;;;;;;;;;9.50;99.90;;;;;;5072964;28;20378;-71
2022/11/26 13:38:33;;;;;;;;;;;9.80;99.90;;;;;;5054732;28;19924;-71
2022/11/26 13:40:58;;;;;;;;;;;;;;;;;;5072529;28;19969;-71
2022/11/26 13:43:39;;;;;;;;;;;9.40;99.90;;;;;;5072340;28;19924;-71
2022/11/26 13:46:05;;;;;;;;;;;;;;;;;;5054035;28;19986;-71
2022/11/26 13:48:39;;;;;;;;;;;9.30;99.90;;;;;;5054749;28;20382;-71
2022/11/26 13:51:05;;;;;;;;;;;;;;;;;;5054822;28;19920;-71
2022/11/26 13:53:39;;;;;;;;;;;9.60;99.90;;;;;;5071461;28;19931;-71
2022/11/26 13:56:06;;;;;;;;;;;9.60;99.90;;;;;;5071777;28;19920;-71
2022/11/26 13:58:35;;;;;;;;;;;9.60;99.90;;;;;;5072386;28;19931;-71
2022/11/26 14:01:19;;;;;;;;;;;9.50;99.90;;;;;;5072061;28;19920;-71
2022/11/26 14:03:44;;;;;;;;;;;;;;;;;;5069154;28;20028;-70
2022/11/26 14:06:10;;;;;;;;;;;;;;;;;;5070201;28;20420;-69
2022/11/26 14:08:36;;;;;;;;;;;;;;;;;;5069340;28;20290;-70
2022/11/26 14:11:02;;;;;;;;;;;;;;;;;;5061965;28;19928;-70
2022/11/26 14:13:28;;;;;;;;;;;;;;;;;;5078428;28;19936;-72
2022/11/26 14:15:54;;;;;;;;;;;;;;;;;;5050973;28;19924;-71
2022/11/26 14:18:20;;;;;;;;;;;;;;;;;;5065723;28;20343;-71
2022/11/26 14:20:46;;;;;;;;;;;;;;;;;;5078131;28;19928;-70
2022/11/26 14:23:12;;;;;;;;;;;;;;;;;;5061136;28;20282;-70
2022/11/26 14:25:37;;;;;;;;;;;9.60;99.90;;;;;;5068604;28;20279;-70
2022/11/26 14:28:04;;;;;;;;;;;;;;;;;;5072489;28;19931;-70
2022/11/26 14:30:31;;;;;;;;;;;;;;;;;;5087329;28;20015;-70
2022/11/26 14:32:57;;;;;;;;;;;;;;;;;;5069104;28;19924;-70
2022/11/26 14:35:30;;;;;;;;;;;9.50;99.90;;;;;;5082064;28;19924;-70
2022/11/26 14:37:55;;;;;;;;;;;;;;;;;;5062494;28;19921;-71
2022/11/26 14:40:21;;;;;;;;;;;;;;;;;;5087626;28;19924;-70
2022/11/26 14:42:47;;;;;;;;;;;;;;;;;;5050138;28;19928;-70
2022/11/26 14:45:13;;;;;;;;;;;;;;;;;;5066207;28;20007;-70
2022/11/26 14:47:39;;;;;;;;;;;;;;;;;;5068539;28;19946;-70
2022/11/26 14:50:05;;;;;;;;;;;;;;;;;;5085552;28;19946;-71
2022/11/26 14:52:32;;;;;;;;;;;;;;;;;;5076576;28;19931;-70
2022/11/26 14:54:58;;;;;;;;;;;;;;;;;;5079791;28;20015;-71
2022/11/26 14:57:24;;;;;;;;;;;;;;;;;;5066921;28;19924;-70
2022/11/26 14:59:50;;;;;;;;;;;;;;;;;;5078587;28;19920;-71
2022/11/26 15:02:15;;;;;;;;;;;;;;;;;;5069414;28;19924;-71
2022/11/26 15:04:43;;;;;;;;;;;;;;;;;;5086199;28;20027;-70
2022/11/26 15:07:09;;;;;;;;;;;;;;;;;;5073180;28;19920;-70
2022/11/26 15:09:35;;;;;;;;;;;9.30;99.90;;;;;;5072932;28;19924;-71
2022/11/26 15:12:01;;;;;;;;;;;;;;;;;;5068997;28;20737;-70
2022/11/26 15:14:28;;;;;;;;;;;;;;;;;;5088999;28;20022;-70
2022/11/26 15:16:54;;;;;;;;;;;;;;;;;;5087227;28;19928;-70
2022/11/26 15:19:20;;;;;;;;;;;9.30;99.90;;;;;;5058690;28;19924;-70